createdAt,value
2019-04-14T00:00:44.751Z,4.37
2019-04-14T00:03:23.734Z,4.46
2019-04-14T00:05:58.240Z,4.42
2019-04-14T00:08:28.826Z,4.39
2019-04-14T00:10:59.459Z,4.37
2019-04-14T00:13:30.917Z,4.27
2019-04-14T00:16:01.367Z,4.37
2019-04-14T00:18:31.637Z,4.43
2019-04-14T00:21:02.240Z,4.45
2019-04-14T00:23:32.850Z,4.32
2019-04-14T00:26:29.338Z,4.25
2019-04-14T00:29:00.147Z,4.32
2019-04-14T00:31:30.870Z,4.32
2019-04-14T00:34:04.982Z,4.16
2019-04-14T00:36:54.998Z,4.34
2019-04-14T00:39:29.434Z,4.17
2019-04-14T00:42:13.399Z,4.20
2019-04-14T00:45:15.491Z,4.10
2019-04-14T00:48:00.550Z,4.12
2019-04-14T00:50:25.364Z,4.04
2019-04-14T00:52:56.647Z,4.18
2019-04-14T00:55:27.170Z,4.21
2019-04-14T00:57:57.646Z,4.09
2019-04-14T01:00:27.829Z,4.10
2019-04-14T01:03:00.358Z,4.03
2019-04-14T01:05:32.914Z,4.10
2019-04-14T01:08:03.167Z,4.23
2019-04-14T01:10:34.333Z,4.15
2019-04-14T01:13:06.798Z,4.15
2019-04-14T01:15:49.120Z,4.05
2019-04-14T01:18:10.052Z,4.06
2019-04-14T01:20:40.672Z,4.06
2019-04-14T01:23:12.888Z,3.99
2019-04-14T01:25:43.662Z,3.92
2019-04-14T01:28:13.837Z,3.85
2019-04-14T01:30:44.079Z,3.73
2019-04-14T01:33:14.350Z,3.76
2019-04-14T01:35:44.715Z,3.66
2019-04-14T01:38:14.903Z,3.76
2019-04-14T01:40:45.196Z,3.66
2019-04-14T01:43:16.662Z,3.75
2019-04-14T01:46:03.963Z,3.72
2019-04-14T01:48:21.415Z,3.70
2019-04-14T01:51:09.365Z,3.59
2019-04-14T01:53:51.025Z,3.57
2019-04-14T01:56:43.505Z,3.59
2019-04-14T01:59:15.232Z,3.57
2019-04-14T02:01:46.176Z,3.66
2019-04-14T02:04:16.375Z,3.51
2019-04-14T02:06:48.723Z,3.64
2019-04-14T02:09:18.941Z,3.49
2019-04-14T02:11:49.487Z,3.59
2019-04-14T02:14:21.094Z,3.71
2019-04-14T02:16:56.070Z,3.75
2019-04-14T02:19:24.208Z,3.72
2019-04-14T02:21:56.232Z,3.52
2019-04-14T02:24:26.734Z,3.57
2019-04-14T02:26:57.092Z,3.55
2019-04-14T02:29:27.659Z,3.71
2019-04-14T02:32:25.320Z,3.76
2019-04-14T02:34:57.650Z,3.45
2019-04-14T02:37:29.237Z,3.43
2019-04-14T02:40:05.328Z,3.32
2019-04-14T02:42:46.466Z,3.40
2019-04-14T02:45:13.924Z,3.44
2019-04-14T02:48:00.087Z,3.40
2019-04-14T02:52:46.953Z,3.10
2019-04-14T02:55:08.538Z,3.14
2019-04-14T02:57:45.053Z,3.05
2019-04-14T03:00:24.198Z,3.03
2019-04-14T03:02:48.702Z,3.11
2019-04-14T03:05:29.435Z,3.10
2019-04-14T03:08:04.112Z,3.04
2019-04-14T03:10:33.923Z,3.08
2019-04-14T03:13:10.528Z,3.00
2019-04-14T03:21:19.715Z,3.05
2019-04-14T03:24:07.016Z,3.01
2019-04-14T03:26:43.880Z,2.93
2019-04-14T03:29:26.785Z,3.00
2019-04-14T03:32:11.033Z,2.99
2019-04-14T03:37:31.128Z,2.92
2019-04-14T03:39:46.268Z,2.74
2019-04-14T03:42:10.831Z,2.86
2019-04-14T03:44:41.524Z,2.84
2019-04-14T03:47:13.629Z,2.74
2019-04-14T03:50:00.053Z,2.75
2019-04-14T03:52:15.274Z,2.76
2019-04-14T03:54:42.638Z,2.70
2019-04-14T03:56:55.969Z,2.74
2019-04-14T03:59:26.349Z,2.63
2019-04-14T04:01:58.495Z,2.60
2019-04-14T04:04:29.420Z,2.60
2019-04-14T04:06:59.775Z,2.65
2019-04-14T04:09:36.554Z,2.66
2019-04-14T04:12:07.472Z,2.67
2019-04-14T04:14:37.918Z,2.72
2019-04-14T04:17:27.601Z,2.77
2019-04-14T04:20:19.860Z,2.77
2019-04-14T04:23:07.768Z,2.66
2019-04-14T04:25:42.895Z,2.70
2019-04-14T04:28:36.413Z,2.62
2019-04-14T04:31:13.431Z,2.74
2019-04-14T04:34:18.365Z,2.63
2019-04-14T04:36:59.493Z,2.65
2019-04-14T04:39:36.999Z,2.56
2019-04-14T04:42:07.505Z,2.55
2019-04-14T04:44:37.827Z,2.61
2019-04-14T04:47:08.054Z,2.62
2019-04-14T04:49:38.367Z,2.45
2019-04-14T04:52:11.424Z,2.55
2019-04-14T04:54:40.735Z,2.41
2019-04-14T04:57:11.348Z,2.42
2019-04-14T04:59:43.036Z,2.44
2019-04-14T05:02:13.725Z,2.38
2019-04-14T05:04:44.056Z,2.36
2019-04-14T05:07:14.519Z,2.39
2019-04-14T05:10:10.983Z,2.40
2019-04-14T05:13:05.054Z,2.49
2019-04-14T05:15:48.808Z,2.47
2019-04-14T05:18:22.102Z,2.58
2019-04-14T05:20:53.232Z,2.64
2019-04-14T05:23:25.642Z,2.45
2019-04-14T05:25:56.197Z,2.47
2019-04-14T05:28:26.775Z,2.49
2019-04-14T05:30:57.489Z,2.39
2019-04-14T05:33:27.885Z,2.41
2019-04-14T05:35:58.184Z,2.30
2019-04-14T05:38:31.817Z,2.39
2019-04-14T05:41:00.479Z,2.58
2019-04-14T05:43:41.478Z,2.42
2019-04-14T05:46:03.509Z,2.39
2019-04-14T05:48:33.840Z,2.36
2019-04-14T05:51:04.205Z,2.37
2019-04-14T05:53:35.112Z,2.31
2019-04-14T05:56:05.868Z,2.31
2019-04-14T05:58:36.199Z,2.30
2019-04-14T06:01:09.649Z,2.29
2019-04-14T06:03:40.792Z,2.26
2019-04-14T06:06:11.353Z,2.33
2019-04-14T06:08:41.633Z,2.33
2019-04-14T06:11:11.833Z,2.30
2019-04-14T06:13:42.112Z,2.44
2019-04-14T06:16:12.362Z,2.53
2019-04-14T06:18:42.584Z,2.43
2019-04-14T06:21:12.820Z,2.53
2019-04-14T06:23:43.164Z,2.28
2019-04-14T06:26:13.397Z,2.22
2019-04-14T06:28:43.610Z,2.26
2019-04-14T06:31:36.020Z,2.23
2019-04-14T06:34:19.281Z,2.16
2019-04-14T06:37:04.025Z,2.15
2019-04-14T06:39:37.301Z,2.15
2019-04-14T06:42:09.789Z,2.15
2019-04-14T06:44:40.064Z,2.23
2019-04-14T06:47:10.291Z,2.34
2019-04-14T06:49:48.702Z,2.41
2019-04-14T06:52:12.951Z,2.39
2019-04-14T06:54:43.296Z,2.31
2019-04-14T06:57:13.498Z,2.33
2019-04-14T06:59:43.846Z,2.39
2019-04-14T07:02:14.116Z,2.52
2019-04-14T07:04:44.725Z,2.64
2019-04-14T07:07:15.075Z,2.62
2019-04-14T07:09:45.317Z,2.77
2019-04-14T07:12:15.608Z,2.89
2019-04-14T07:14:46.105Z,2.65
2019-04-14T07:17:17.372Z,2.54
2019-04-14T07:19:47.542Z,2.55
2019-04-14T07:22:18.010Z,2.51
2019-04-14T07:24:48.422Z,2.52
2019-04-14T07:27:18.619Z,2.67
2019-04-14T07:29:55.064Z,2.66
2019-04-14T07:32:47.249Z,2.64
2019-04-14T07:35:35.290Z,2.69
2019-04-14T07:38:23.304Z,2.65
2019-04-14T07:41:11.076Z,2.71
2019-04-14T07:44:18.856Z,2.79
2019-04-14T07:46:56.289Z,2.76
2019-04-14T07:49:49.524Z,2.85
2019-04-14T07:52:52.280Z,2.88
2019-04-14T07:55:41.498Z,2.92
2019-04-14T07:58:42.984Z,2.87
2019-04-14T08:01:16.349Z,2.83
2019-04-14T08:04:06.375Z,2.96
2019-04-14T08:06:38.490Z,3.02
2019-04-14T08:09:08.945Z,3.02
2019-04-14T08:11:39.102Z,3.04
2019-04-14T08:14:09.267Z,3.21
2019-04-14T08:16:39.858Z,3.12
2019-04-14T08:19:11.815Z,3.05
2019-04-14T08:21:42.290Z,3.21
2019-04-14T08:24:12.578Z,3.25
2019-04-14T08:26:42.932Z,3.15
2019-04-14T08:29:13.139Z,3.32
2019-04-14T08:31:43.358Z,3.39
2019-04-14T08:34:13.627Z,3.39
2019-04-14T08:36:43.908Z,3.51
2019-04-14T08:39:14.206Z,3.54
2019-04-14T08:41:55.468Z,3.22
2019-04-14T08:44:40.452Z,3.30
2019-04-14T08:47:43.294Z,3.37
2019-04-14T08:50:41.013Z,3.31
2019-04-14T08:53:19.921Z,3.32
2019-04-14T08:56:02.527Z,3.40
2019-04-14T08:58:55.634Z,3.55
2019-04-14T09:01:32.408Z,3.48
2019-04-14T09:04:14.956Z,3.64
2019-04-14T09:07:06.695Z,3.72
2019-04-14T09:09:40.086Z,3.85
2019-04-14T09:12:15.921Z,4.00
2019-04-14T09:14:56.202Z,3.97
2019-04-14T09:17:18.070Z,3.97
2019-04-14T09:19:48.327Z,3.90
2019-04-14T09:22:18.585Z,3.97
2019-04-14T09:24:49.834Z,4.03
2019-04-14T09:27:20.081Z,4.06
2019-04-14T09:29:52.250Z,4.11
2019-04-14T09:32:22.750Z,4.08
2019-04-14T09:34:53.026Z,4.26
2019-04-14T09:37:23.407Z,4.32
2019-04-14T09:39:53.598Z,4.50
2019-04-14T09:42:26.075Z,4.38
2019-04-14T09:44:56.379Z,4.30
2019-04-14T09:47:28.461Z,4.29
2019-04-14T09:50:06.693Z,4.30
2019-04-14T09:52:38.172Z,4.26
2019-04-14T09:55:09.977Z,4.47
2019-04-14T09:57:40.237Z,4.52
2019-04-14T10:00:12.891Z,4.46
2019-04-14T10:02:44.783Z,4.66
2019-04-14T10:05:15.134Z,4.56
2019-04-14T10:07:45.865Z,4.61
2019-04-14T10:10:16.231Z,4.71
2019-04-14T10:12:46.556Z,4.79
2019-04-14T10:15:16.997Z,4.83
2019-04-14T10:18:14.964Z,4.91
2019-04-14T10:21:18.637Z,4.86
2019-04-14T10:23:48.992Z,4.74
2019-04-14T10:26:19.588Z,5.01
2019-04-14T10:28:50.825Z,4.94
2019-04-14T10:31:21.845Z,5.09
2019-04-14T10:33:52.126Z,5.09
2019-04-14T10:36:22.456Z,5.16
2019-04-14T10:38:52.752Z,5.30
2019-04-14T10:41:23.830Z,5.24
2019-04-14T10:43:54.428Z,5.38
2019-04-14T10:46:25.085Z,5.29
2019-04-14T10:48:56.743Z,5.31
2019-04-14T10:51:34.052Z,5.29
2019-04-14T10:54:04.523Z,5.36
2019-04-14T10:56:34.858Z,5.53
2019-04-14T10:59:07.103Z,5.79
2019-04-14T11:01:37.641Z,5.72
2019-04-14T11:04:08.240Z,6.02
2019-04-14T11:06:55.647Z,5.97
2019-04-14T11:09:26.040Z,6.07
2019-04-14T11:11:57.922Z,6.34
2019-04-14T11:14:29.353Z,6.43
2019-04-14T11:17:00.935Z,6.41
2019-04-14T11:19:31.288Z,6.59
2019-04-14T11:22:02.643Z,6.45
2019-04-14T11:24:32.953Z,6.55
2019-04-14T11:27:03.300Z,6.50
2019-04-14T11:29:33.621Z,6.81
2019-04-14T11:32:34.003Z,6.64
2019-04-14T11:35:32.190Z,6.65
2019-04-14T11:38:20.490Z,6.86
2019-04-14T11:40:53.365Z,6.93
2019-04-14T11:43:23.801Z,7.09
2019-04-14T11:45:53.990Z,7.14
2019-04-14T11:48:26.359Z,7.08
2019-04-14T11:50:57.123Z,6.93
2019-04-14T11:53:28.825Z,7.00
2019-04-14T11:55:59.145Z,6.96
2019-04-14T11:58:29.508Z,7.05
2019-04-14T12:01:17.634Z,7.26
2019-04-14T12:04:02.239Z,7.35
2019-04-14T12:06:50.516Z,7.22
2019-04-14T12:09:27.128Z,7.25
2019-04-14T12:11:59.742Z,7.19
2019-04-14T12:14:30.312Z,7.36
2019-04-14T12:17:05.037Z,7.57
2019-04-14T12:19:35.288Z,7.44
2019-04-14T12:22:08.453Z,7.32
2019-04-14T12:24:37.499Z,7.52
2019-04-14T12:27:07.801Z,7.80
2019-04-14T12:29:39.027Z,7.80
2019-04-14T12:32:10.750Z,8.05
2019-04-14T12:34:41.329Z,8.74
2019-04-14T12:37:11.615Z,8.41
2019-04-14T12:39:43.091Z,8.24
2019-04-14T12:42:33.272Z,8.26
2019-04-14T12:45:25.581Z,8.28
2019-04-14T12:48:26.874Z,8.31
2019-04-14T12:51:00.567Z,8.62
2019-04-14T12:53:30.954Z,8.77
2019-04-14T12:56:01.206Z,8.67
2019-04-14T12:58:48.204Z,8.55
2019-04-14T13:01:19.056Z,8.65
2019-04-14T13:03:49.405Z,8.87
2019-04-14T13:06:21.085Z,8.95
2019-04-14T13:08:52.430Z,9.48
2019-04-14T13:11:22.738Z,9.25
2019-04-14T13:13:53.423Z,9.19
2019-04-14T13:16:23.652Z,9.24
2019-04-14T13:18:57.545Z,9.04
2019-04-14T13:21:27.901Z,8.94
2019-04-14T13:23:58.625Z,9.11
2019-04-14T13:26:29.141Z,9.37
2019-04-14T13:28:59.366Z,9.27
2019-04-14T13:31:29.578Z,9.29
2019-04-14T13:33:59.780Z,9.22
2019-04-14T13:36:30.080Z,9.47
2019-04-14T13:39:00.436Z,9.34
2019-04-14T13:41:31.159Z,9.52
2019-04-14T13:44:01.384Z,9.66
2019-04-14T13:46:33.438Z,9.63
2019-04-14T13:49:04.794Z,9.60
2019-04-14T13:51:35.134Z,9.59
2019-04-14T13:54:05.503Z,9.65
2019-04-14T13:56:37.061Z,9.75
2019-04-14T13:59:07.389Z,9.87
2019-04-14T14:01:38.127Z,9.80
2019-04-14T14:04:08.320Z,9.98
2019-04-14T14:06:38.592Z,10.09
2019-04-14T14:09:12.216Z,10.05
2019-04-14T14:12:01.581Z,9.85
2019-04-14T14:14:51.059Z,10.19
2019-04-14T14:17:28.172Z,10.09
2019-04-14T14:20:26.756Z,10.19
2019-04-14T14:23:14.667Z,10.27
2019-04-14T14:25:51.369Z,10.37
2019-04-14T14:28:23.747Z,10.23
2019-04-14T14:30:55.226Z,10.09
2019-04-14T14:33:25.925Z,10.35
2019-04-14T14:35:56.822Z,10.50
2019-04-14T14:38:27.124Z,10.26
2019-04-14T14:40:59.152Z,10.41
2019-04-14T14:43:30.410Z,10.29
2019-04-14T14:46:29.669Z,10.33
2019-04-14T14:49:21.073Z,10.40
2019-04-14T14:51:54.172Z,10.60
2019-04-14T14:54:24.438Z,10.47
2019-04-14T14:56:56.997Z,10.54
2019-04-14T14:59:27.236Z,10.79
2019-04-14T15:01:57.435Z,10.53
2019-04-14T15:04:27.700Z,10.40
2019-04-14T15:06:58.071Z,10.49
2019-04-14T15:09:28.316Z,10.48
2019-04-14T15:11:59.815Z,10.76
2019-04-14T15:14:31.117Z,10.76
2019-04-14T15:17:02.718Z,10.71
2019-04-14T15:19:32.936Z,10.73
2019-04-14T15:22:03.849Z,10.67
2019-04-14T15:24:34.108Z,10.70
2019-04-14T15:27:04.547Z,10.52
2019-04-14T15:29:35.460Z,10.61
2019-04-14T15:32:06.836Z,10.68
2019-04-14T15:34:37.476Z,10.37
2019-04-14T15:37:07.849Z,10.34
2019-04-14T15:39:38.758Z,10.48
2019-04-14T15:42:09.041Z,10.58
2019-04-14T15:44:39.353Z,10.51
2019-04-14T15:47:11.678Z,10.35
2019-04-14T15:49:41.881Z,10.46
2019-04-14T15:52:12.085Z,10.52
2019-04-14T15:54:44.746Z,10.68
2019-04-14T15:57:31.745Z,10.76
2019-04-14T16:00:49.034Z,10.75
2019-04-14T16:03:33.985Z,10.67
2019-04-14T16:06:22.213Z,10.66
2019-04-14T16:09:00.641Z,10.72
2019-04-14T16:11:41.074Z,10.61
2019-04-14T16:14:30.325Z,10.55
2019-04-14T16:17:19.552Z,10.58
2019-04-14T16:19:55.323Z,10.58
2019-04-14T16:22:25.660Z,10.55
2019-04-14T16:24:55.876Z,10.61
2019-04-14T16:27:48.570Z,10.58
2019-04-14T16:30:34.191Z,10.59
2019-04-14T16:33:23.420Z,10.55
2019-04-14T16:35:54.643Z,10.61
2019-04-14T16:38:24.987Z,10.66
2019-04-14T16:40:55.335Z,10.64
2019-04-14T16:43:26.849Z,10.68
2019-04-14T16:45:59.384Z,10.68
2019-04-14T16:48:29.621Z,10.67
2019-04-14T16:51:00.054Z,10.66
2019-04-14T16:53:36.293Z,10.69
2019-04-14T16:56:28.494Z,10.66
2019-04-14T16:59:04.958Z,10.72
2019-04-14T17:01:38.170Z,10.69
2019-04-14T17:04:08.680Z,10.67
2019-04-14T17:06:38.857Z,10.58
2019-04-14T17:09:09.765Z,10.61
2019-04-14T17:11:41.658Z,10.59
2019-04-14T17:14:36.105Z,10.63
2019-04-14T17:17:33.555Z,10.55
2019-04-14T17:20:22.210Z,10.61
2019-04-14T17:23:16.055Z,10.56
2019-04-14T17:26:04.680Z,10.50
2019-04-14T17:28:53.961Z,10.46
2019-04-14T17:31:32.196Z,10.42
2019-04-14T17:34:16.104Z,10.44
2019-04-14T17:37:02.637Z,10.44
2019-04-14T17:39:41.287Z,10.28
2019-04-14T17:42:20.611Z,10.31
2019-04-14T17:44:55.638Z,10.31
2019-04-14T17:47:39.035Z,10.28
2019-04-14T17:50:40.614Z,10.22
2019-04-14T17:53:23.425Z,10.21
2019-04-14T17:56:13.485Z,10.21
2019-04-14T17:59:01.623Z,10.15
2019-04-14T18:01:50.869Z,10.15
2019-04-14T18:04:28.781Z,10.11
2019-04-14T18:07:24.044Z,10.14
2019-04-14T18:10:18.281Z,10.09
2019-04-14T18:12:57.398Z,10.05
2019-04-14T18:15:46.656Z,9.99
2019-04-14T18:18:29.761Z,9.96
2019-04-14T18:21:06.091Z,9.94
2019-04-14T18:23:36.267Z,9.91
2019-04-14T18:26:08.689Z,9.90
2019-04-14T18:28:49.844Z,9.87
2019-04-14T18:31:24.948Z,9.86
2019-04-14T18:34:18.700Z,9.80
2019-04-14T18:37:10.648Z,9.74
2019-04-14T18:40:00.211Z,9.71
2019-04-14T18:42:37.818Z,9.69
2019-04-14T18:45:23.166Z,9.61
2019-04-14T18:48:05.078Z,9.70
2019-04-14T18:51:06.420Z,9.63
2019-04-14T18:53:58.039Z,9.63
2019-04-14T18:56:46.194Z,9.62
2019-04-14T18:59:39.191Z,9.58
2019-04-14T19:02:11.460Z,9.53
2019-04-14T19:04:41.703Z,9.48
2019-04-14T19:07:11.981Z,9.49
2019-04-14T19:09:42.165Z,9.47
2019-04-14T19:12:30.399Z,9.36
2019-04-14T19:15:18.733Z,9.32
2019-04-14T19:17:55.749Z,9.35
2019-04-14T19:20:26.052Z,9.34
2019-04-14T19:22:56.886Z,9.31
2019-04-14T19:25:27.170Z,9.22
2019-04-14T19:27:57.414Z,9.26
2019-04-14T19:30:27.606Z,9.25
2019-04-14T19:32:57.813Z,9.15
2019-04-14T19:35:28.110Z,9.26
2019-04-14T19:37:58.309Z,9.15
2019-04-14T19:40:28.571Z,9.18
2019-04-14T19:42:58.758Z,9.15
2019-04-14T19:45:29.075Z,9.11
2019-04-14T19:47:59.467Z,9.23
2019-04-14T19:50:30.073Z,9.06
2019-04-14T19:53:00.401Z,8.99
2019-04-14T19:55:30.709Z,9.01
2019-04-14T19:58:00.919Z,8.97
2019-04-14T20:00:31.075Z,8.92
2019-04-14T20:03:01.261Z,8.98
2019-04-14T20:05:31.796Z,8.95
2019-04-14T20:08:02.089Z,8.97
2019-04-14T20:10:32.296Z,9.02
2019-04-14T20:13:02.649Z,9.01
2019-04-14T20:15:37.666Z,9.08
2019-04-14T20:18:29.495Z,9.02
2019-04-14T20:21:10.198Z,8.97
2019-04-14T20:23:51.650Z,8.81
2019-04-14T20:26:54.977Z,8.81
2019-04-14T20:29:28.342Z,8.81
2019-04-14T20:32:02.481Z,8.86
2019-04-14T20:34:32.722Z,8.80
2019-04-14T20:37:03.382Z,8.78
2019-04-14T20:39:33.863Z,8.84
2019-04-14T20:42:04.509Z,8.68
2019-04-14T20:44:34.773Z,8.83
2019-04-14T20:47:08.374Z,8.85
2019-04-14T20:49:39.336Z,8.85
2019-04-14T20:52:09.578Z,8.82
2019-04-14T20:54:39.778Z,8.87
2019-04-14T20:57:09.998Z,8.71
2019-04-14T20:59:40.264Z,8.77
2019-04-14T21:02:47.682Z,8.85
2019-04-14T21:05:44.005Z,8.72
2019-04-14T21:08:32.709Z,8.71
2019-04-14T21:11:08.489Z,8.78
2019-04-14T21:14:16.011Z,8.74
2019-04-14T21:16:55.144Z,8.74
2019-04-14T21:19:31.995Z,8.80
2019-04-14T21:22:13.260Z,8.82
2019-04-14T21:24:48.614Z,8.74
2019-04-14T21:27:56.671Z,8.79
2019-04-14T21:30:45.865Z,8.72
2019-04-14T21:33:29.746Z,8.72
2019-04-14T21:36:08.177Z,8.67
2019-04-14T21:38:52.690Z,8.62
2019-04-14T21:41:25.730Z,8.63
2019-04-14T21:43:57.612Z,8.55
2019-04-14T21:46:27.886Z,8.49
2019-04-14T21:48:58.123Z,8.42
2019-04-14T21:51:47.404Z,8.35
2019-04-14T21:54:18.597Z,8.32
2019-04-14T21:56:57.759Z,8.19
2019-04-14T21:59:30.954Z,8.23
2019-04-14T22:02:18.876Z,8.10
2019-04-14T22:05:11.160Z,8.06
2019-04-14T22:07:58.349Z,8.03
2019-04-14T22:10:40.154Z,7.98
2019-04-14T22:13:10.564Z,7.90
2019-04-14T22:15:41.294Z,7.84
2019-04-14T22:18:15.619Z,7.72
2019-04-14T22:20:45.938Z,7.81
2019-04-14T22:23:16.234Z,7.62
2019-04-14T22:25:46.798Z,7.74
2019-04-14T22:28:16.992Z,7.55
2019-04-14T22:30:47.483Z,7.48
2019-04-14T22:33:17.678Z,7.44
2019-04-14T22:35:47.963Z,7.37
2019-04-14T22:38:18.191Z,7.38
2019-04-14T22:40:48.497Z,7.35
2019-04-14T22:43:18.928Z,7.30
2019-04-14T22:45:49.173Z,7.26
2019-04-14T22:48:19.400Z,7.29
2019-04-14T22:50:49.620Z,7.33
2019-04-14T22:53:19.874Z,7.39
2019-04-14T22:55:51.283Z,7.36
2019-04-14T22:58:21.485Z,7.46
2019-04-14T23:00:56.018Z,7.51
2019-04-14T23:03:46.584Z,7.51
2019-04-14T23:06:48.256Z,7.50
2019-04-14T23:09:29.792Z,7.56
2019-04-14T23:12:18.974Z,7.59
2019-04-14T23:14:57.551Z,7.54
2019-04-14T23:17:49.713Z,7.52
2019-04-14T23:20:30.294Z,7.62
2019-04-14T23:23:08.022Z,7.59
2019-04-14T23:25:38.998Z,7.50
2019-04-14T23:28:09.336Z,7.51
2019-04-14T23:30:39.619Z,7.49
2019-04-14T23:33:09.875Z,7.50
2019-04-14T23:35:40.220Z,7.46
2019-04-14T23:38:12.302Z,7.46
2019-04-14T23:40:42.481Z,7.44
2019-04-14T23:43:12.716Z,7.40
2019-04-14T23:45:43.096Z,7.46
2019-04-14T23:48:13.408Z,7.34
2019-04-14T23:50:43.571Z,7.54
2019-04-14T23:53:14.079Z,7.57
2019-04-14T23:55:44.373Z,7.62
2019-04-14T23:58:14.633Z,7.55
